createdAt,value
2022-12-07T00:00:00.785Z,-3.81
2022-12-07T00:02:29.655Z,-3.82
2022-12-07T00:04:58.384Z,-3.79
2022-12-07T00:07:28.468Z,-3.82
2022-12-07T00:09:57.100Z,-3.83
2022-12-07T00:12:25.785Z,-3.77
2022-12-07T00:14:54.490Z,-3.83
2022-12-07T00:17:23.411Z,-3.77
2022-12-07T00:19:52.082Z,-3.75
2022-12-07T00:22:20.834Z,-3.74
2022-12-07T00:24:50.918Z,-3.81
2022-12-07T00:27:19.562Z,-3.76
2022-12-07T00:29:48.332Z,-3.71
2022-12-07T00:32:17.046Z,-3.74
2022-12-07T00:34:45.766Z,-3.73
2022-12-07T00:37:14.629Z,-3.74
2022-12-07T00:39:43.301Z,-3.73
2022-12-07T00:42:13.331Z,-3.66
2022-12-07T00:44:41.970Z,-3.58
2022-12-07T00:47:10.661Z,-3.58
2022-12-07T00:49:39.471Z,-3.62
2022-12-07T00:52:08.108Z,-3.67
2022-12-07T00:54:36.745Z,-3.64
2022-12-07T00:57:05.557Z,-3.64
2022-12-07T00:59:35.882Z,-3.63
2022-12-07T01:02:04.583Z,-3.59
2022-12-07T01:04:35.928Z,-3.62
2022-12-07T01:07:04.669Z,-3.65
2022-12-07T01:09:33.596Z,-3.58
2022-12-07T01:12:02.273Z,-3.51
2022-12-07T01:14:31.000Z,-3.49
2022-12-07T01:17:01.089Z,-3.52
2022-12-07T01:19:29.861Z,-3.55
2022-12-07T01:21:58.592Z,-3.52
2022-12-07T01:24:27.223Z,-3.55
2022-12-07T01:26:55.908Z,-3.49
2022-12-07T01:29:24.573Z,-3.41
2022-12-07T01:31:53.238Z,-3.34
2022-12-07T01:34:23.324Z,-3.45
2022-12-07T01:36:52.046Z,-3.43
2022-12-07T01:39:20.754Z,-3.39
2022-12-07T01:41:49.653Z,-3.35
2022-12-07T01:44:25.241Z,-3.41
2022-12-07T01:46:56.877Z,-3.46
2022-12-07T01:49:33.875Z,-3.46
2022-12-07T01:52:19.699Z,-3.48
2022-12-07T01:54:50.826Z,-3.46
2022-12-07T01:57:20.583Z,-3.39
2022-12-07T01:59:53.213Z,-3.36
2022-12-07T02:02:28.680Z,-3.37
2022-12-07T02:05:02.363Z,-3.43
2022-12-07T02:07:34.901Z,-3.43
2022-12-07T02:10:16.675Z,-3.43
2022-12-07T02:12:48.634Z,-3.40
2022-12-07T02:16:06.127Z,-3.41
2022-12-07T02:18:52.582Z,-3.41
2022-12-07T02:21:36.727Z,-3.36
2022-12-07T02:24:33.527Z,-3.41
2022-12-07T02:27:39.456Z,-3.41
2022-12-07T02:30:12.618Z,-3.46
2022-12-07T02:32:55.633Z,-3.51
2022-12-07T02:35:32.760Z,-3.43
2022-12-07T02:38:13.082Z,-3.36
2022-12-07T02:40:49.770Z,-3.42
2022-12-07T02:43:24.214Z,-3.39
2022-12-07T02:45:58.761Z,-3.40
2022-12-07T02:48:29.743Z,-3.52
2022-12-07T02:50:58.506Z,-3.52
2022-12-07T02:53:35.981Z,-3.41
2022-12-07T02:56:18.860Z,-3.47
2022-12-07T02:59:04.489Z,-3.37
2022-12-07T03:01:50.974Z,-3.38
2022-12-07T03:04:39.275Z,-3.39
2022-12-07T03:07:20.916Z,-3.40
2022-12-07T03:10:02.350Z,-3.34
2022-12-07T03:12:41.703Z,-3.25
2022-12-07T03:15:18.929Z,-3.36
2022-12-07T03:17:51.398Z,-3.33
2022-12-07T03:20:24.287Z,-3.36
2022-12-07T03:22:55.946Z,-3.35
2022-12-07T03:25:25.859Z,-3.30
2022-12-07T03:27:59.455Z,-3.31
2022-12-07T03:30:35.354Z,-3.43
2022-12-07T03:33:11.399Z,-3.34
2022-12-07T03:35:45.239Z,-3.37
2022-12-07T03:38:22.792Z,-3.29
2022-12-07T03:41:02.233Z,-3.34
2022-12-07T03:43:32.054Z,-3.32
2022-12-07T03:46:12.027Z,-3.31
2022-12-07T03:48:52.323Z,-3.31
2022-12-07T03:51:28.807Z,-3.37
2022-12-07T03:54:07.943Z,-3.32
2022-12-07T03:56:38.829Z,-3.29
2022-12-07T03:59:08.475Z,-3.27
2022-12-07T04:01:37.487Z,-3.19
2022-12-07T04:04:07.704Z,-3.30
2022-12-07T04:06:36.512Z,-3.32
2022-12-07T04:09:05.509Z,-3.22
2022-12-07T04:11:34.191Z,-3.27
2022-12-07T04:14:21.368Z,-3.31
2022-12-07T04:16:52.244Z,-3.35
2022-12-07T04:19:26.260Z,-3.30
2022-12-07T04:21:54.923Z,-3.31
2022-12-07T04:24:24.840Z,-3.30
2022-12-07T04:26:54.130Z,-3.20
2022-12-07T04:29:23.489Z,-3.20
2022-12-07T04:31:53.057Z,-3.23
2022-12-07T04:34:23.370Z,-3.25
2022-12-07T04:36:52.133Z,-3.34
2022-12-07T04:39:24.990Z,-3.41
2022-12-07T04:41:54.124Z,-3.39
2022-12-07T04:44:24.152Z,-3.37
2022-12-07T04:46:53.990Z,-3.35
2022-12-07T04:49:25.172Z,-3.36
2022-12-07T04:51:54.835Z,-3.34
2022-12-07T04:54:23.904Z,-3.30
2022-12-07T04:56:52.695Z,-3.28
2022-12-07T04:59:21.412Z,-3.38
2022-12-07T05:01:50.306Z,-3.37
2022-12-07T05:04:19.648Z,-3.39
2022-12-07T05:06:49.801Z,-3.36
2022-12-07T05:09:18.510Z,-3.37
2022-12-07T05:11:47.209Z,-3.32
2022-12-07T05:14:18.564Z,-3.33
2022-12-07T05:16:49.980Z,-3.28
2022-12-07T05:19:19.881Z,-3.27
2022-12-07T05:21:50.212Z,-3.27
2022-12-07T05:24:19.739Z,-3.36
2022-12-07T05:26:48.633Z,-3.36
2022-12-07T05:29:19.204Z,-3.41
2022-12-07T05:31:48.308Z,-3.39
2022-12-07T05:34:17.164Z,-3.40
2022-12-07T05:36:45.788Z,-3.36
2022-12-07T05:39:16.044Z,-3.32
2022-12-07T05:42:02.151Z,-3.34
2022-12-07T05:44:30.885Z,-3.34
2022-12-07T05:46:59.625Z,-3.27
2022-12-07T05:49:28.282Z,-3.26
2022-12-07T05:51:57.046Z,-3.31
2022-12-07T05:54:27.269Z,-3.34
2022-12-07T05:56:55.974Z,-3.34
2022-12-07T05:59:23.856Z,-3.35
2022-12-07T06:01:53.771Z,-3.28
2022-12-07T06:04:23.940Z,-3.24
2022-12-07T06:06:52.696Z,-3.27
2022-12-07T06:09:22.527Z,-3.25
2022-12-07T06:12:10.615Z,-3.26
2022-12-07T06:14:39.675Z,-3.27
2022-12-07T06:17:08.960Z,-3.27
2022-12-07T06:19:38.369Z,-3.31
2022-12-07T06:22:07.527Z,-3.35
2022-12-07T06:24:36.394Z,-3.32
2022-12-07T06:27:07.435Z,-3.32
2022-12-07T06:29:36.225Z,-3.31
2022-12-07T06:32:05.902Z,-3.24
2022-12-07T06:34:34.683Z,-3.34
2022-12-07T06:37:03.499Z,-3.27
2022-12-07T06:39:32.798Z,-3.16
2022-12-07T06:42:02.249Z,-3.20
2022-12-07T06:44:32.318Z,-3.17
2022-12-07T06:47:31.810Z,-3.16
2022-12-07T06:49:51.017Z,-3.10
2022-12-07T06:52:19.864Z,-3.11
2022-12-07T06:54:48.536Z,-3.13
2022-12-07T06:57:17.237Z,-3.11
2022-12-07T06:59:47.351Z,-3.10
2022-12-07T07:02:16.156Z,-3.03
2022-12-07T07:04:45.045Z,-3.05
2022-12-07T07:07:13.814Z,-3.01
2022-12-07T07:09:42.634Z,-3.00
2022-12-07T07:12:11.328Z,-3.04
2022-12-07T07:14:40.172Z,-2.97
2022-12-07T07:17:10.323Z,-2.91
2022-12-07T07:19:39.287Z,-2.97
2022-12-07T07:22:08.028Z,-2.95
2022-12-07T07:24:36.679Z,-2.88
2022-12-07T07:27:05.485Z,-2.82
2022-12-07T07:29:34.233Z,-2.83
2022-12-07T07:32:06.619Z,-2.82
2022-12-07T07:34:37.342Z,-2.81
2022-12-07T07:37:06.490Z,-2.82
2022-12-07T07:39:35.269Z,-2.81
2022-12-07T07:42:03.924Z,-2.76
2022-12-07T07:44:35.662Z,-2.76
2022-12-07T07:47:05.848Z,-2.78
2022-12-07T07:49:36.216Z,-2.69
2022-12-07T07:52:05.444Z,-2.61
2022-12-07T07:54:34.288Z,-2.58
2022-12-07T07:57:02.982Z,-2.45
2022-12-07T07:59:31.712Z,-2.34
2022-12-07T08:02:00.572Z,-2.36
2022-12-07T08:04:29.348Z,-2.45
2022-12-07T08:06:59.648Z,-2.45
2022-12-07T08:09:28.272Z,-2.59
2022-12-07T08:11:56.914Z,-2.55
2022-12-07T08:14:28.476Z,-2.45
2022-12-07T08:16:57.219Z,-2.38
2022-12-07T08:19:26.246Z,-2.43
2022-12-07T08:21:56.477Z,-2.42
2022-12-07T08:24:27.300Z,-2.29
2022-12-07T08:26:56.190Z,-2.34
2022-12-07T08:29:24.842Z,-2.27
2022-12-07T08:31:53.691Z,-2.27
2022-12-07T08:34:22.385Z,-2.28
2022-12-07T08:36:51.233Z,-2.22
2022-12-07T08:39:35.420Z,-2.30
2022-12-07T08:42:05.803Z,-2.29
2022-12-07T08:44:34.431Z,-2.29
2022-12-07T08:47:07.701Z,-2.25
2022-12-07T08:49:43.676Z,-2.24
2022-12-07T08:52:12.363Z,-2.31
2022-12-07T08:54:43.339Z,-2.20
2022-12-07T08:57:14.297Z,-2.13
2022-12-07T08:59:43.281Z,-2.25
2022-12-07T09:02:12.252Z,-2.12
2022-12-07T09:04:41.054Z,-2.16
2022-12-07T09:07:09.931Z,-2.09
2022-12-07T09:09:38.713Z,-2.06
2022-12-07T09:12:07.640Z,-2.01
2022-12-07T09:14:37.791Z,-1.91
2022-12-07T09:17:11.382Z,-1.98
2022-12-07T09:19:42.578Z,-2.00
2022-12-07T09:22:11.882Z,-2.06
2022-12-07T09:24:40.610Z,-2.06
2022-12-07T09:27:09.278Z,-2.06
2022-12-07T09:29:39.687Z,-1.97
2022-12-07T09:32:11.654Z,-1.99
2022-12-07T09:34:40.853Z,-2.05
2022-12-07T09:37:09.937Z,-2.16
2022-12-07T09:39:48.178Z,-2.08
2022-12-07T09:42:31.752Z,-2.11
2022-12-07T09:45:03.615Z,-2.10
2022-12-07T09:47:35.082Z,-2.13
2022-12-07T09:50:09.683Z,-2.15
2022-12-07T09:52:39.339Z,-2.22
2022-12-07T09:55:16.179Z,-2.16
2022-12-07T09:57:45.689Z,-2.20
2022-12-07T10:00:19.789Z,-2.16
2022-12-07T10:02:55.425Z,-2.21
2022-12-07T10:05:32.416Z,-2.28
2022-12-07T10:08:01.915Z,-2.37
2022-12-07T10:10:38.537Z,-2.38
2022-12-07T10:13:10.390Z,-2.18
2022-12-07T10:15:51.996Z,-2.27
2022-12-07T10:18:33.681Z,-2.29
2022-12-07T10:21:13.768Z,-2.28
2022-12-07T10:23:48.468Z,-2.38
2022-12-07T10:26:34.280Z,-2.36
2022-12-07T10:29:16.085Z,-2.30
2022-12-07T10:31:48.448Z,-2.36
2022-12-07T10:34:26.282Z,-2.51
2022-12-07T10:36:56.250Z,-2.41
2022-12-07T10:39:26.510Z,-2.51
2022-12-07T10:42:00.334Z,-2.53
2022-12-07T10:44:32.057Z,-2.59
2022-12-07T10:47:22.555Z,-2.48
2022-12-07T10:50:38.559Z,-2.42
2022-12-07T10:53:46.696Z,-2.61
2022-12-07T10:56:55.548Z,-2.48
2022-12-07T10:59:55.608Z,-2.64
2022-12-07T11:03:04.006Z,-2.70
2022-12-07T11:05:43.466Z,-2.79
2022-12-07T11:08:27.941Z,-2.76
2022-12-07T11:11:07.455Z,-2.79
2022-12-07T11:13:48.943Z,-2.88
2022-12-07T11:16:55.734Z,-2.99
2022-12-07T11:19:53.271Z,-3.08
2022-12-07T11:22:29.274Z,-3.16
2022-12-07T11:25:16.413Z,-3.04
2022-12-07T11:28:05.295Z,-3.16
2022-12-07T11:30:45.486Z,-3.17
2022-12-07T11:33:26.356Z,-3.13
2022-12-07T11:36:18.621Z,-3.20
2022-12-07T11:38:52.748Z,-3.29
2022-12-07T11:41:28.949Z,-3.32
2022-12-07T11:44:07.527Z,-3.43
2022-12-07T11:46:52.117Z,-3.52
2022-12-07T11:49:36.588Z,-3.50
2022-12-07T11:52:15.938Z,-3.58
2022-12-07T11:54:48.106Z,-3.50
2022-12-07T11:57:27.916Z,-3.51
2022-12-07T12:00:04.117Z,-3.55
2022-12-07T12:02:42.034Z,-3.55
2022-12-07T12:05:19.919Z,-3.63
2022-12-07T12:11:05.915Z,-3.68
2022-12-07T12:17:41.880Z,-3.54
2022-12-07T12:20:25.330Z,-3.59
2022-12-07T12:23:01.658Z,-3.64
2022-12-07T12:25:38.583Z,-3.60
2022-12-07T12:28:07.556Z,-3.66
2022-12-07T12:30:40.690Z,-3.65
2022-12-07T12:33:22.448Z,-3.69
2022-12-07T12:36:27.784Z,-3.75
2022-12-07T12:39:15.768Z,-3.73
2022-12-07T12:42:08.802Z,-3.71
2022-12-07T12:45:21.749Z,-3.71
2022-12-07T12:48:01.458Z,-3.80
2022-12-07T12:50:34.848Z,-3.82
2022-12-07T12:53:24.316Z,-3.83
2022-12-07T12:56:41.803Z,-3.81
2022-12-07T12:59:32.004Z,-3.81
2022-12-07T13:02:24.221Z,-3.91
2022-12-07T13:04:58.841Z,-3.89
2022-12-07T13:08:01.975Z,-3.83
2022-12-07T13:10:45.845Z,-3.81
2022-12-07T13:14:10.351Z,-3.80
2022-12-07T13:16:55.505Z,-3.78
2022-12-07T13:20:01.464Z,-3.89
2022-12-07T13:22:51.950Z,-3.87
2022-12-07T13:25:53.281Z,-3.86
2022-12-07T13:28:27.448Z,-3.86
2022-12-07T13:31:16.608Z,-3.87
2022-12-07T13:33:48.789Z,-3.84
2022-12-07T13:36:24.500Z,-3.87
2022-12-07T13:38:59.742Z,-3.90
2022-12-07T13:41:30.358Z,-3.95
2022-12-07T13:44:05.321Z,-3.91
2022-12-07T13:46:51.037Z,-3.92
2022-12-07T13:49:26.142Z,-3.84
2022-12-07T13:51:57.122Z,-3.87
2022-12-07T13:54:25.843Z,-3.91
2022-12-07T13:56:55.935Z,-3.90
2022-12-07T13:59:27.970Z,-3.93
2022-12-07T14:01:57.329Z,-3.97
2022-12-07T14:04:38.231Z,-3.95
2022-12-07T14:07:28.655Z,-3.98
2022-12-07T14:10:02.344Z,-3.92
2022-12-07T14:12:38.895Z,-3.96
2022-12-07T14:15:21.862Z,-3.95
2022-12-07T14:17:59.785Z,-4.02
2022-12-07T14:20:37.485Z,-3.93
2022-12-07T14:23:11.116Z,-3.93
2022-12-07T14:25:51.557Z,-3.96
2022-12-07T14:28:31.783Z,-3.97
2022-12-07T14:31:01.107Z,-4.00
2022-12-07T14:33:30.399Z,-3.97
2022-12-07T14:36:00.538Z,-3.94
2022-12-07T14:38:40.617Z,-3.92
2022-12-07T14:41:34.590Z,-3.96
2022-12-07T14:44:22.536Z,-3.96
2022-12-07T14:49:43.158Z,-3.88
2022-12-07T14:55:16.550Z,-3.88
2022-12-07T14:57:45.450Z,-3.88
2022-12-07T15:00:18.922Z,-3.89
2022-12-07T15:02:48.707Z,-3.91
2022-12-07T15:05:19.318Z,-3.93
2022-12-07T15:07:51.042Z,-3.92
2022-12-07T15:10:24.728Z,-3.87
2022-12-07T15:12:53.859Z,-3.86
2022-12-07T15:15:22.590Z,-3.89
2022-12-07T15:17:51.286Z,-3.92
2022-12-07T15:20:20.253Z,-3.87
2022-12-07T15:22:50.731Z,-3.81
2022-12-07T15:25:19.566Z,-3.86
2022-12-07T15:27:48.215Z,-3.80
2022-12-07T15:30:17.331Z,-3.77
2022-12-07T15:32:46.273Z,-3.79
2022-12-07T15:35:15.044Z,-3.80
2022-12-07T15:37:43.879Z,-3.78
2022-12-07T15:40:15.648Z,-3.83
2022-12-07T15:42:44.418Z,-3.83
2022-12-07T15:45:14.414Z,-3.78
2022-12-07T15:50:34.529Z,-3.73
2022-12-07T15:53:03.171Z,-3.76
2022-12-07T15:55:33.335Z,-3.71
2022-12-07T15:58:03.045Z,-3.74
2022-12-07T16:00:31.720Z,-3.73
2022-12-07T16:03:00.539Z,-3.74
2022-12-07T16:05:29.307Z,-3.74
2022-12-07T16:07:58.347Z,-3.69
2022-12-07T16:10:27.245Z,-3.76
2022-12-07T16:12:57.487Z,-3.75
2022-12-07T16:15:27.969Z,-3.80
2022-12-07T16:17:56.653Z,-3.73
2022-12-07T16:20:25.339Z,-3.70
2022-12-07T16:22:55.492Z,-3.67
2022-12-07T16:25:25.028Z,-3.69
2022-12-07T16:27:54.257Z,-3.63
2022-12-07T16:30:24.578Z,-3.63
2022-12-07T16:32:55.800Z,-3.62
2022-12-07T16:35:27.688Z,-3.67
2022-12-07T16:37:56.449Z,-3.59
2022-12-07T16:40:25.153Z,-3.59
2022-12-07T16:42:53.901Z,-3.64
2022-12-07T16:45:23.978Z,-3.60
2022-12-07T16:47:52.778Z,-3.60
2022-12-07T16:50:21.801Z,-3.59
2022-12-07T16:52:50.518Z,-3.57
2022-12-07T16:55:19.192Z,-3.49
2022-12-07T16:57:48.462Z,-3.49
2022-12-07T17:00:18.470Z,-3.48
2022-12-07T17:02:48.528Z,-3.49
2022-12-07T17:05:17.162Z,-3.57
2022-12-07T17:07:45.826Z,-3.47
2022-12-07T17:10:14.543Z,-3.49
2022-12-07T17:12:43.845Z,-3.41
2022-12-07T17:15:17.894Z,-3.50
2022-12-07T17:17:53.253Z,-3.51
2022-12-07T17:20:23.399Z,-3.43
2022-12-07T17:22:52.662Z,-3.46
2022-12-07T17:25:22.639Z,-3.46
2022-12-07T17:27:51.581Z,-3.47
2022-12-07T17:30:20.922Z,-3.41
2022-12-07T17:32:54.284Z,-3.43
2022-12-07T17:35:23.291Z,-3.30
2022-12-07T17:37:52.239Z,-3.30
2022-12-07T17:40:21.152Z,-3.32
2022-12-07T17:42:51.610Z,-3.39
2022-12-07T17:45:20.733Z,-3.48
2022-12-07T17:47:51.192Z,-3.46
2022-12-07T17:50:41.655Z,-3.45
2022-12-07T17:53:12.489Z,-3.40
2022-12-07T17:56:12.099Z,-3.37
2022-12-07T17:58:30.743Z,-3.38
2022-12-07T18:01:02.850Z,-3.44
2022-12-07T18:03:34.167Z,-3.40
2022-12-07T18:06:04.242Z,-3.46
2022-12-07T18:08:39.056Z,-3.47
2022-12-07T18:11:11.084Z,-3.52
2022-12-07T18:13:40.070Z,-3.48
2022-12-07T18:16:13.607Z,-3.48
2022-12-07T18:18:49.149Z,-3.41
2022-12-07T18:21:28.484Z,-3.46
2022-12-07T18:24:02.386Z,-3.46
2022-12-07T18:26:35.925Z,-3.44
2022-12-07T18:29:08.524Z,-3.51
2022-12-07T18:31:38.320Z,-3.43
2022-12-07T18:34:13.524Z,-3.45
2022-12-07T18:36:46.204Z,-3.43
2022-12-07T18:39:20.479Z,-3.51
2022-12-07T18:41:49.839Z,-3.50
2022-12-07T18:44:18.926Z,-3.49
2022-12-07T18:46:50.605Z,-3.46
2022-12-07T18:49:30.594Z,-3.39
2022-12-07T18:52:00.907Z,-3.48
2022-12-07T18:54:29.601Z,-3.46
2022-12-07T18:56:58.236Z,-3.53
2022-12-07T18:59:44.171Z,-3.52
2022-12-07T19:02:13.157Z,-3.50
2022-12-07T19:04:43.391Z,-3.47
2022-12-07T19:07:12.185Z,-3.52
2022-12-07T19:09:41.518Z,-3.55
2022-12-07T19:12:14.026Z,-3.55
2022-12-07T19:14:43.327Z,-3.49
2022-12-07T19:17:14.673Z,-3.48
2022-12-07T19:19:47.261Z,-3.52
2022-12-07T19:22:18.841Z,-3.57
2022-12-07T19:24:52.235Z,-3.51
2022-12-07T19:27:21.848Z,-3.47
2022-12-07T19:29:51.207Z,-3.43
2022-12-07T19:32:21.015Z,-3.44
2022-12-07T19:34:51.560Z,-3.46
2022-12-07T19:37:20.324Z,-3.45
2022-12-07T19:39:51.915Z,-3.48
2022-12-07T19:42:20.711Z,-3.48
2022-12-07T19:44:49.497Z,-3.48
2022-12-07T19:47:18.620Z,-3.48
2022-12-07T19:49:47.680Z,-3.48
2022-12-07T19:52:17.843Z,-3.52
2022-12-07T19:54:46.605Z,-3.51
2022-12-07T19:57:17.849Z,-3.50
2022-12-07T19:59:46.982Z,-3.52
2022-12-07T20:02:17.392Z,-3.50
2022-12-07T20:04:46.385Z,-3.53
2022-12-07T20:07:15.130Z,-3.44
2022-12-07T20:09:45.226Z,-3.55
2022-12-07T20:12:31.018Z,-3.52
2022-12-07T20:14:59.790Z,-3.53
2022-12-07T20:17:28.611Z,-3.51
2022-12-07T20:19:57.351Z,-3.52
2022-12-07T20:22:26.157Z,-3.54
2022-12-07T20:24:56.254Z,-3.55
2022-12-07T20:27:24.965Z,-3.49
2022-12-07T20:29:53.741Z,-3.52
2022-12-07T20:32:22.415Z,-3.52
2022-12-07T20:34:51.131Z,-3.52
2022-12-07T20:37:19.848Z,-3.58
2022-12-07T20:39:48.514Z,-3.53
2022-12-07T20:42:35.751Z,-3.55
2022-12-07T20:45:06.258Z,-3.58
2022-12-07T20:47:35.799Z,-3.63
2022-12-07T20:50:05.719Z,-3.64
2022-12-07T20:52:34.435Z,-3.64
2022-12-07T20:55:03.309Z,-3.58
2022-12-07T20:57:36.887Z,-3.67
2022-12-07T21:00:10.480Z,-3.67
2022-12-07T21:02:41.910Z,-3.71
2022-12-07T21:05:11.361Z,-3.67
2022-12-07T21:07:40.237Z,-3.70
2022-12-07T21:10:10.071Z,-3.64
2022-12-07T21:12:41.482Z,-3.58
2022-12-07T21:15:11.043Z,-3.58
2022-12-07T21:17:39.996Z,-3.64
2022-12-07T21:20:10.582Z,-3.60
2022-12-07T21:22:39.318Z,-3.60
2022-12-07T21:25:09.075Z,-3.60
2022-12-07T21:27:37.779Z,-3.58
2022-12-07T21:30:09.584Z,-3.58
2022-12-07T21:32:38.215Z,-3.58
2022-12-07T21:35:07.736Z,-3.58
2022-12-07T21:37:36.537Z,-3.56
2022-12-07T21:40:06.339Z,-3.57
2022-12-07T21:42:34.971Z,-3.55
2022-12-07T21:45:03.994Z,-3.51
2022-12-07T21:47:34.346Z,-3.48
2022-12-07T21:50:03.003Z,-3.48
2022-12-07T21:52:32.100Z,-3.46
2022-12-07T21:55:01.079Z,-3.45
2022-12-07T21:57:30.419Z,-3.48
2022-12-07T21:59:59.043Z,-3.50
2022-12-07T22:02:27.740Z,-3.51
2022-12-07T22:04:57.984Z,-3.48
2022-12-07T22:07:26.642Z,-3.42
2022-12-07T22:09:55.258Z,-3.40
2022-12-07T22:12:23.888Z,-3.34
2022-12-07T22:15:06.747Z,-3.43
2022-12-07T22:17:35.795Z,-3.43
2022-12-07T22:20:07.424Z,-3.50
2022-12-07T22:22:36.103Z,-3.46
2022-12-07T22:25:05.272Z,-3.38
2022-12-07T22:27:34.450Z,-3.31
2022-12-07T22:30:03.129Z,-3.34
2022-12-07T22:32:48.995Z,-3.30
2022-12-07T22:35:19.827Z,-3.38
2022-12-07T22:37:48.544Z,-3.39
2022-12-07T22:40:17.345Z,-3.43
2022-12-07T22:42:46.061Z,-3.41
2022-12-07T22:45:14.728Z,-3.39
2022-12-07T22:47:43.416Z,-3.37
2022-12-07T22:50:12.836Z,-3.29
2022-12-07T22:52:43.204Z,-3.28
2022-12-07T22:55:11.967Z,-3.36
2022-12-07T22:57:41.517Z,-3.32
2022-12-07T23:00:11.840Z,-3.33
2022-12-07T23:02:40.670Z,-3.34
2022-12-07T23:05:10.581Z,-3.39
2022-12-07T23:07:39.334Z,-3.44
2022-12-07T23:10:11.382Z,-3.41
2022-12-07T23:12:57.581Z,-3.37
2022-12-07T23:15:26.211Z,-3.39
2022-12-07T23:17:54.867Z,-3.31
2022-12-07T23:20:23.599Z,-3.36
2022-12-07T23:22:52.320Z,-3.31
2022-12-07T23:25:22.343Z,-3.34
2022-12-07T23:27:51.143Z,-3.27
2022-12-07T23:30:19.994Z,-3.23
2022-12-07T23:32:48.645Z,-3.28
2022-12-07T23:35:17.365Z,-3.22
2022-12-07T23:37:46.018Z,-3.21
2022-12-07T23:40:14.747Z,-3.19
2022-12-07T23:42:44.778Z,-3.19
2022-12-07T23:45:13.382Z,-3.22
2022-12-07T23:47:42.055Z,-3.21
2022-12-07T23:50:11.586Z,-3.12
2022-12-07T23:52:40.243Z,-3.19
2022-12-07T23:55:10.486Z,-3.17
2022-12-07T23:57:39.184Z,-3.12
